Time;durP1;ratioP1;P1;durP2;ratioP2;P2;SDS_P1;SDS_P2;PMS_P1;PMS_P2;Temp;Humidity;BMP_temperature;BMP_pressure;BME280_temperature;BME280_humidity;BME280_pressure;Samples;Min_cycle;Max_cycle;Signal;HPM_P1;HPM_P2
2022/01/14 05:00:28;;;;;;;64.80;28.90;;;;;;;-8.10;100.00;95914.38;6057337;23;20017;-75
2022/01/14 05:02:55;;;;;;;61.72;28.52;;;;;;;-8.19;100.00;95905.41;4986016;28;20112;-75
2022/01/14 05:05:22;;;;;;;62.55;28.92;;;;;;;-8.15;100.00;95904.44;4955091;28;20035;-75
2022/01/14 05:07:49;;;;;;;63.88;29.63;;;;;;;-8.32;100.00;95893.19;4971272;28;20034;-75
2022/01/14 05:12:40;;;;;;;61.25;30.55;;;;;;;-8.10;100.00;95892.63;4986884;28;20074;-75
2022/01/14 05:15:07;;;;;;;63.35;28.83;;;;;;;-8.09;100.00;95891.72;4954968;28;20538;-75
2022/01/14 05:17:33;;;;;;;58.45;29.85;;;;;;;-8.15;100.00;95886.88;4973912;28;20411;-76
2022/01/14 05:19:59;;;;;;;62.75;27.75;;;;;;;-8.25;100.00;95887.94;4975122;28;20887;-75
2022/01/14 05:22:25;;;;;;;64.97;30.05;;;;;;;-8.21;100.00;95888.69;4974397;28;20077;-75
2022/01/14 05:24:51;;;;;;;60.58;27.85;;;;;;;-8.31;100.00;95892.31;4990653;28;20065;-75
2022/01/14 05:27:16;;;;;;;65.47;27.95;;;;;;;-8.31;100.00;95895.66;4974862;28;20061;-75
2022/01/14 05:29:42;;;;;;;61.00;26.80;;;;;;;-8.39;100.00;95896.69;4989807;28;20060;-75
2022/01/14 05:32:12;;;;;;;60.33;27.90;;;;;;;-8.23;100.00;95893.78;4974733;28;20031;-75
2022/01/14 05:34:38;;;;;;;59.78;26.50;;;;;;;-8.10;100.00;95900.16;4974400;28;20121;-75
2022/01/14 05:37:04;;;;;;;67.50;30.20;;;;;;;-8.09;100.00;95900.97;4992457;28;20479;-75
2022/01/14 05:39:31;;;;;;;57.85;27.83;;;;;;;-8.10;100.00;95901.84;4990187;28;20024;-76
2022/01/14 05:41:59;;;;;;;60.00;27.58;;;;;;;-8.09;100.00;95898.47;4974552;28;20018;-75
2022/01/14 05:44:25;;;;;;;57.45;26.65;;;;;;;-8.16;100.00;95892.78;4971402;28;20031;-76
2022/01/14 05:46:51;;;;;;;54.67;26.25;;;;;;;-8.14;100.00;95888.53;4973705;28;20133;-76
2022/01/14 05:49:17;;;;;;;58.50;25.65;;;;;;;-8.17;100.00;95878.56;4974505;28;20022;-76
2022/01/14 05:51:43;;;;;;;56.65;26.77;;;;;;;-8.26;100.00;95866.22;4973506;28;20412;-76
2022/01/14 05:54:09;;;;;;;52.65;26.95;;;;;;;-8.13;100.00;95881.81;4959580;28;20019;-76
2022/01/14 05:56:34;;;;;;;60.22;28.23;;;;;;;-8.17;100.00;95872.69;4953707;28;20053;-75
2022/01/14 05:59:00;;;;;;;63.15;28.80;;;;;;;-8.08;100.00;95874.97;4971281;28;20031;-75
2022/01/14 06:01:25;;;;;;;62.28;27.88;;;;;;;-7.95;100.00;95871.31;4966936;28;20047;-75
2022/01/14 06:03:51;;;;;;;58.95;27.33;;;;;;;-7.93;100.00;95878.81;4966017;28;20439;-75
2022/01/14 06:06:16;;;;;;;60.22;28.30;;;;;;;-7.98;100.00;95876.41;4952107;29;20031;-75
2022/01/14 06:08:46;;;;;;;58.22;27.85;;;;;;;-7.88;100.00;95870.31;4965180;28;20083;-75
2022/01/14 06:11:12;;;;;;;58.88;29.02;;;;;;;-7.76;100.00;95876.69;4951988;28;20122;-75
2022/01/14 06:13:37;;;;;;;60.13;28.13;;;;;;;-7.60;100.00;95873.75;4965176;28;20530;-75
2022/01/14 06:16:03;;;;;;;61.05;29.55;;;;;;;-7.35;100.00;95866.38;4968266;28;20031;-75
2022/01/14 06:18:28;;;;;;;60.50;29.98;;;;;;;-7.25;100.00;95866.94;4969156;28;20031;-75
2022/01/14 06:20:54;;;;;;;59.03;31.48;;;;;;;-7.17;100.00;95860.03;4969792;28;20066;-75
2022/01/14 06:23:19;;;;;;;53.70;27.77;;;;;;;-7.11;100.00;95869.91;4970675;28;20053;-75
2022/01/14 06:25:45;;;;;;;61.78;29.23;;;;;;;-6.90;100.00;95868.50;4968461;28;20031;-75
2022/01/14 06:28:10;;;;;;;56.42;28.13;;;;;;;-6.51;100.00;95867.31;4985389;28;20100;-75
2022/01/14 06:30:35;;;;;;;54.20;27.08;;;;;;;-6.95;100.00;95861.91;4984214;28;20038;-75
2022/01/14 06:33:01;;;;;;;71.13;29.42;;;;;;;-6.67;100.00;95868.63;4953122;28;20031;-75
2022/01/14 06:35:26;;;;;;;54.63;26.45;;;;;;;-6.08;100.00;95865.09;4979598;28;20019;-76
2022/01/14 06:37:53;;;;;;;54.22;29.98;;;;;;;-6.04;100.00;95845.69;4961106;28;20039;-75
2022/01/14 06:40:18;;;;;;;59.92;32.33;;;;;;;-5.88;100.00;95861.94;4969124;28;20030;-75
2022/01/14 06:42:44;;;;;;;63.15;29.98;;;;;;;-5.67;100.00;95847.75;4950363;28;20463;-75
2022/01/14 06:45:10;;;;;;;50.20;26.90;;;;;;;-5.43;100.00;95841.88;4968610;28;20563;-75
2022/01/14 06:47:35;;;;;;;48.20;24.70;;;;;;;-5.34;100.00;95842.41;4948471;28;20026;-76
2022/01/14 06:50:02;;;;;;;53.40;29.38;;;;;;;-4.41;98.84;95844.00;4951478;28;20440;-76
2022/01/14 06:52:27;;;;;;;50.22;26.70;;;;;;;-4.13;95.49;95829.38;4964280;28;20472;-75
2022/01/14 06:54:53;;;;;;;48.17;26.25;;;;;;;-3.86;95.24;95838.41;4949714;28;20038;-75
2022/01/14 06:57:19;;;;;;;48.63;25.80;;;;;;;-3.92;94.59;95828.53;4948682;28;20452;-76
2022/01/14 06:59:44;;;;;;;129.18;73.32;;;;;;;-5.00;98.78;95828.53;4949171;28;20035;-75
2022/01/14 07:02:10;;;;;;;77.85;43.72;;;;;;;-5.10;100.00;95829.75;4965258;28;20467;-75
2022/01/14 07:04:36;;;;;;;62.53;32.65;;;;;;;-5.23;100.00;95821.81;4948376;29;20027;-76
2022/01/14 07:07:02;;;;;;;55.58;28.10;;;;;;;-5.09;100.00;95819.63;4951299;28;20086;-75
2022/01/14 07:09:29;;;;;;;56.45;29.23;;;;;;;-4.98;100.00;95807.44;4947852;28;20033;-75
2022/01/14 07:11:58;;;;;;;58.28;30.17;;;;;;;-5.25;100.00;95816.00;4949515;28;20432;-75
2022/01/14 07:14:23;;;;;;;58.10;29.92;;;;;;;-5.03;100.00;95818.56;4948158;28;20192;-75
2022/01/14 07:16:50;;;;;;;50.85;27.17;;;;;;;-4.93;100.00;95809.78;4949097;29;20031;-75
2022/01/14 07:19:19;;;;;;;55.28;26.73;;;;;;;-4.70;100.00;95811.44;4954135;28;20047;-75
2022/01/14 07:21:44;;;;;;;51.67;27.87;;;;;;;-4.64;100.00;95808.69;4957589;28;20019;-75
2022/01/14 07:24:12;;;;;;;52.45;27.17;;;;;;;-4.57;100.00;95805.88;4968288;28;20282;-75
2022/01/14 07:26:38;;;;;;;55.20;27.00;;;;;;;-4.46;100.00;95796.16;4951129;28;20082;-76
2022/01/14 07:29:03;;;;;;;55.58;27.42;;;;;;;-4.45;100.00;95799.50;4968661;28;20023;-75
2022/01/14 07:31:29;;;;;;;47.20;25.40;;;;;;;-4.38;100.00;95811.84;4967097;28;20027;-76
2022/01/14 07:33:54;;;;;;;48.78;26.27;;;;;;;-4.26;100.00;95806.31;4952115;28;20126;-76
2022/01/14 07:36:19;;;;;;;50.53;24.55;;;;;;;-4.30;100.00;95798.88;4966455;28;20027;-75
2022/01/14 07:38:45;;;;;;;47.85;25.17;;;;;;;-4.17;100.00;95805.09;4968304;28;20447;-73
2022/01/14 07:41:10;;;;;;;50.55;26.30;;;;;;;-4.02;100.00;95796.91;4951907;28;20038;-73
2022/01/14 07:43:36;;;;;;;43.85;25.50;;;;;;;-3.85;100.00;95791.16;4967304;28;20034;-73
2022/01/14 07:46:03;;;;;;;43.45;24.40;;;;;;;-3.82;100.00;95791.84;4967737;28;20031;-73
2022/01/14 07:48:29;;;;;;;41.35;23.80;;;;;;;-3.75;100.00;95783.13;4968215;28;20118;-73
2022/01/14 07:50:54;;;;;;;47.58;24.02;;;;;;;-3.76;100.00;95778.94;4967677;28;20122;-73
2022/01/14 07:53:20;;;;;;;47.47;24.02;;;;;;;-3.69;100.00;95782.03;4983108;28;20495;-75
2022/01/14 07:55:46;;;;;;;43.90;23.27;;;;;;;-3.66;100.00;95788.69;4967659;28;20038;-75
2022/01/14 07:58:13;;;;;;;44.20;23.83;;;;;;;-3.61;100.00;95797.72;4967960;28;20133;-75
2022/01/14 08:00:39;;;;;;;44.78;25.05;;;;;;;-3.43;100.00;95786.81;4972547;28;20119;-75
2022/01/14 08:03:05;;;;;;;45.92;26.33;;;;;;;-3.40;100.00;95781.59;4968093;28;20086;-75
2022/01/14 08:05:30;;;;;;;50.08;26.48;;;;;;;-3.29;100.00;95783.69;4966869;28;20035;-76
2022/01/14 08:07:58;;;;;;;45.10;24.40;;;;;;;-3.29;100.00;95783.69;4972586;28;20019;-76
2022/01/14 08:10:23;;;;;;;44.05;24.95;;;;;;;-3.08;100.00;95772.59;4980667;28;20117;-76
2022/01/14 08:12:49;;;;;;;48.33;24.55;;;;;;;-3.16;100.00;95768.75;4954355;28;20113;-75
2022/01/14 08:15:15;;;;;;;44.30;22.55;;;;;;;-3.05;100.00;95771.66;4968338;28;20034;-75
2022/01/14 08:17:41;;;;;;;43.33;24.33;;;;;;;-2.94;100.00;95770.25;4969500;28;20042;-75
2022/01/14 08:20:08;;;;;;;39.72;22.17;;;;;;;-2.90;100.00;95764.19;4970669;28;20034;-75
2022/01/14 08:22:34;;;;;;;45.83;25.02;;;;;;;-2.79;100.00;95754.34;4969494;28;20037;-75
2022/01/14 08:25:00;;;;;;;43.60;24.13;;;;;;;-2.61;100.00;95751.88;4970715;28;20454;-75
2022/01/14 08:27:28;;;;;;;39.03;22.33;;;;;;;-2.44;100.00;95746.84;4969332;28;20035;-75
2022/01/14 08:29:54;;;;;;;43.92;24.80;;;;;;;-2.46;100.00;95736.75;4955100;28;20550;-75
2022/01/14 08:32:21;;;;;;;39.63;22.10;;;;;;;-2.43;100.00;95733.25;4969714;28;20033;-75
2022/01/14 08:34:46;;;;;;;37.47;20.60;;;;;;;-2.29;100.00;95729.16;4988042;28;20026;-75
2022/01/14 08:37:12;;;;;;;39.35;20.48;;;;;;;-2.16;100.00;95730.22;4969434;28;20088;-75
2022/01/14 08:39:39;;;;;;;37.38;20.42;;;;;;;-1.98;100.00;95732.72;4964866;28;20065;-75
2022/01/14 08:42:08;;;;;;;38.95;20.25;;;;;;;-2.00;100.00;95716.75;4964303;28;20423;-75
2022/01/14 08:44:36;;;;;;;36.15;20.10;;;;;;;-2.12;100.00;95720.75;4958004;28;20030;-75
2022/01/14 08:47:09;;;;;;;40.92;21.70;;;;;;;-2.05;100.00;95727.13;4963823;28;20038;-75
2022/01/14 08:49:35;;;;;;;42.60;22.85;;;;;;;-2.00;100.00;95729.44;4970749;28;20038;-75
2022/01/14 08:52:00;;;;;;;36.20;21.08;;;;;;;-1.89;100.00;95728.00;4991394;28;20035;-75
2022/01/14 08:54:26;;;;;;;37.35;20.52;;;;;;;-1.88;100.00;95716.97;4958021;28;20034;-75
2022/01/14 08:56:51;;;;;;;35.50;20.23;;;;;;;-1.60;100.00;95718.91;4973423;28;20423;-75
2022/01/14 08:59:17;;;;;;;40.13;20.98;;;;;;;-1.52;100.00;95716.00;4991808;28;20426;-75
2022/01/14 09:01:43;;;;;;;35.30;19.45;;;;;;;-1.48;100.00;95709.88;4989043;28;20050;-75
2022/01/14 09:04:09;;;;;;;32.30;19.73;;;;;;;-1.42;100.00;95709.53;4974108;28;20393;-75
2022/01/14 09:06:34;;;;;;;32.50;19.38;;;;;;;-1.38;99.79;95704.19;4973246;28;20037;-75
2022/01/14 09:09:00;;;;;;;34.22;19.33;;;;;;;-1.27;100.00;95698.56;4954473;28;20074;-75
2022/01/14 09:11:25;;;;;;;32.53;17.92;;;;;;;-1.32;100.00;95698.00;4962751;28;20054;-75
2022/01/14 09:13:51;;;;;;;30.67;18.02;;;;;;;-1.02;100.00;95686.19;4957378;28;20439;-75
2022/01/14 09:16:20;;;;;;;29.70;18.05;;;;;;;-0.98;100.00;95681.75;4970878;28;20046;-75
2022/01/14 09:18:49;;;;;;;31.48;18.50;;;;;;;-1.09;100.00;95674.72;4970884;28;20027;-75
2022/01/14 09:21:16;;;;;;;29.98;18.25;;;;;;;-1.11;100.00;95676.53;4954214;28;20034;-75
2022/01/14 09:23:43;;;;;;;33.42;18.35;;;;;;;-1.11;100.00;95674.81;4952485;28;20134;-74
2022/01/14 09:26:09;;;;;;;28.33;18.10;;;;;;;-0.99;100.00;95669.94;4970569;28;20034;-75
2022/01/14 09:28:35;;;;;;;30.83;16.05;;;;;;;-0.99;100.00;95665.69;4953677;28;20035;-75
2022/01/14 09:31:00;;;;;;;31.58;17.42;;;;;;;-1.01;100.00;95664.97;4953864;28;20109;-75
2022/01/14 09:33:25;;;;;;;29.83;16.33;;;;;;;-0.94;100.00;95656.09;4971633;28;20041;-75
2022/01/14 09:35:51;;;;;;;25.80;16.40;;;;;;;-0.91;100.00;95653.41;4969246;28;20026;-76
2022/01/14 09:38:17;;;;;;;25.40;15.45;;;;;;;-0.82;100.00;95652.06;4966767;28;20084;-75
2022/01/14 09:40:45;;;;;;;30.10;15.68;;;;;;;-0.76;100.00;95652.53;4975352;28;20381;-76
2022/01/14 09:43:12;;;;;;;24.42;14.80;;;;;;;-0.84;100.00;95653.88;4957281;28;20042;-75
2022/01/14 09:45:38;;;;;;;23.42;15.40;;;;;;;-0.64;100.00;95639.13;4988364;28;20026;-75
2022/01/14 09:48:04;;;;;;;26.80;15.77;;;;;;;-0.63;100.00;95628.06;4973437;28;20116;-76
2022/01/14 09:50:29;;;;;;;26.10;15.32;;;;;;;-0.64;100.00;95628.13;4972969;28;20034;-74
2022/01/14 09:52:54;;;;;;;26.90;15.15;;;;;;;-0.70;100.00;95625.94;4956303;28;20180;-75
2022/01/14 09:55:23;;;;;;;26.17;14.93;;;;;;;-0.60;100.00;95617.72;4956604;28;20030;-75
2022/01/14 09:57:49;;;;;;;29.75;15.98;;;;;;;-0.48;100.00;95611.09;4972215;28;20036;-75
2022/01/14 10:00:15;;;;;;;27.42;14.57;;;;;;;-0.36;100.00;95612.16;4990677;28;20097;-75
2022/01/14 10:02:43;;;;;;;29.80;13.52;;;;;;;-0.51;100.00;95606.19;4961707;28;20069;-74
2022/01/14 10:05:10;;;;;;;24.98;14.10;;;;;;;-0.51;100.00;95600.31;4972590;28;20031;-75
2022/01/14 10:07:36;;;;;;;28.27;15.63;;;;;;;-0.30;100.00;95597.34;4974347;28;20034;-76
2022/01/14 10:10:21;;;;;;;21.63;13.95;;;;;;;-0.34;100.00;95598.41;4969012;28;20026;-76
2022/01/14 10:12:47;;;;;;;26.45;14.55;;;;;;;-0.37;100.00;95583.34;4969067;28;20027;-76
2022/01/14 10:15:13;;;;;;;25.40;14.63;;;;;;;-0.38;100.00;95596.13;4968094;28;20027;-75
2022/01/14 10:17:41;;;;;;;19.27;13.65;;;;;;;-0.31;100.00;95598.25;4967990;28;20027;-76
2022/01/14 10:20:10;;;;;;;24.38;14.48;;;;;;;-0.33;100.00;95583.97;4965763;28;20034;-76
2022/01/14 10:22:42;;;;;;;22.90;13.00;;;;;;;-0.28;100.00;95581.97;4948929;28;20023;-76
2022/01/14 10:25:13;;;;;;;20.95;13.73;;;;;;;-0.27;100.00;95559.00;4949281;29;20543;-76
2022/01/14 10:27:39;;;;;;;26.90;13.60;;;;;;;-0.20;100.00;95575.56;4947778;29;20443;-76
2022/01/14 10:30:27;;;;;;;22.80;13.65;;;;;;;-0.01;100.00;95565.91;4948740;28;20035;-76
2022/01/14 10:32:57;;;;;;;22.35;12.63;;;;;;;-0.04;100.00;95562.72;4948109;29;20524;-76
2022/01/14 10:35:24;;;;;;;23.38;12.77;;;;;;;0.02;100.00;95551.34;4948914;28;20027;-75
2022/01/14 10:37:50;;;;;;;22.00;13.88;;;;;;;0.21;100.00;95550.16;4950786;28;20035;-76
2022/01/14 10:40:24;;;;;;;18.98;13.13;;;;;;;0.41;100.00;95549.75;4949191;29;20053;-76
2022/01/14 10:42:51;;;;;;;18.58;11.20;;;;;;;0.51;100.00;95535.50;4964854;28;20075;-76
2022/01/14 10:45:27;;;;;;;23.95;12.85;;;;;;;0.65;100.00;95538.91;4946974;28;20035;-75
2022/01/14 10:48:01;;;;;;;19.15;11.38;;;;;;;0.71;99.77;95531.72;4969122;28;20491;-76
2022/01/14 10:50:35;;;;;;;19.25;10.70;;;;;;;0.72;99.88;95532.53;4967499;28;20082;-75
2022/01/14 10:53:02;;;;;;;22.48;9.90;;;;;;;0.81;100.00;95529.41;4968833;28;20712;-76
2022/01/14 10:55:32;;;;;;;13.82;9.90;;;;;;;0.79;100.00;95521.88;4952457;28;20040;-75
2022/01/14 10:57:58;;;;;;;17.10;10.50;;;;;;;0.75;100.00;95517.03;4968976;28;20844;-76
2022/01/14 11:00:24;;;;;;;19.77;11.15;;;;;;;0.88;100.00;95512.81;4952087;28;20027;-75
2022/01/14 11:02:49;;;;;;;16.27;10.93;;;;;;;0.88;100.00;95516.16;4967721;28;20472;-75
2022/01/14 11:05:23;;;;;;;18.00;10.93;;;;;;;1.07;100.00;95505.59;4984001;28;20118;-76
2022/01/14 11:07:50;;;;;;;15.70;11.95;;;;;;;1.02;100.00;95498.25;4983451;28;20042;-75
2022/01/14 11:10:21;;;;;;;14.15;10.43;;;;;;;1.23;99.67;95490.94;4984700;28;20393;-75
2022/01/14 11:12:47;;;;;;;14.88;10.05;;;;;;;1.30;98.86;95493.88;4967916;28;20515;-76
2022/01/14 11:15:13;;;;;;;13.75;10.23;;;;;;;1.19;98.56;95484.38;4967094;28;20031;-75
2022/01/14 11:17:40;;;;;;;14.60;10.52;;;;;;;1.06;98.66;95483.56;4951698;28;20118;-75
2022/01/14 11:20:08;;;;;;;16.48;9.68;;;;;;;1.37;98.95;95483.19;4963630;28;20035;-75
2022/01/14 11:25:18;;;;;;;16.27;10.30;;;;;;;1.45;97.84;95464.81;4962428;28;20043;-73
2022/01/14 11:27:51;;;;;;;17.17;10.73;;;;;;;1.54;98.77;95459.91;4964759;28;20035;-73
2022/01/14 11:30:16;;;;;;;14.77;9.50;;;;;;;1.57;98.40;95454.56;4964632;28;20134;-75
2022/01/14 11:32:56;;;;;;;11.70;9.38;;;;;;;1.51;98.33;95452.44;4967172;28;20373;-75
2022/01/14 11:35:24;;;;;;;12.63;8.70;;;;;;;1.59;99.05;95451.94;4963462;28;20026;-75
2022/01/14 11:37:50;;;;;;;13.02;8.07;;;;;;;1.74;97.84;95444.97;4951072;28;20038;-75
2022/01/14 11:40:16;;;;;;;13.10;8.70;;;;;;;1.74;96.85;95430.47;4964390;28;20053;-76
2022/01/14 11:42:47;;;;;;;13.77;9.77;;;;;;;1.88;97.01;95419.31;4967093;28;20436;-76
2022/01/14 11:45:20;;;;;;;13.10;8.40;;;;;;;2.47;93.64;95422.75;4982296;28;20026;-75
2022/01/14 11:47:50;;;;;;;14.23;9.23;;;;;;;2.46;92.42;95419.38;4963502;28;20411;-76
2022/01/14 11:50:18;;;;;;;12.13;8.97;;;;;;;2.44;93.34;95422.97;4968887;28;20038;-75
2022/01/14 11:52:44;;;;;;;15.90;9.45;;;;;;;2.56;91.90;95409.31;4981268;28;20274;-76
2022/01/14 11:55:19;;;;;;;15.05;9.20;;;;;;;2.57;91.70;95401.50;4981470;28;20035;-76
2022/01/14 11:57:51;;;;;;;13.15;9.80;;;;;;;2.47;92.40;95403.09;4968706;28;20460;-75
2022/01/14 12:10:36;;;;;;;16.05;9.50;;;;;;;2.56;92.38;95394.78;4958597;28;20117;-75
2022/01/14 12:16:04;;;;;;;12.18;8.48;;;;;;;2.97;90.57;95375.59;4981047;28;20085;-75
2022/01/14 12:18:57;;;;;;;12.43;9.93;;;;;;;3.03;89.75;95380.22;4951382;28;20038;-76
2022/01/14 12:21:40;;;;;;;10.10;7.78;;;;;;;3.02;90.01;95373.47;4967481;28;20603;-76
2022/01/14 12:24:17;;;;;;;18.27;7.85;;;;;;;3.22;89.31;95367.69;4986346;28;20030;-75
2022/01/14 12:27:07;;;;;;;11.68;8.10;;;;;;;3.31;88.01;95356.75;4977931;28;20085;-75
2022/01/14 12:29:41;;;;;;;13.30;8.52;;;;;;;3.55;88.71;95344.66;4995169;28;20335;-75
2022/01/14 12:32:20;;;;;;;9.48;7.40;;;;;;;3.27;88.41;95337.47;4989978;28;20037;-75
2022/01/14 12:34:55;;;;;;;9.38;7.88;;;;;;;3.29;88.89;95333.03;4979279;28;20117;-76
2022/01/14 12:37:29;;;;;;;11.32;7.97;;;;;;;3.25;89.49;95336.75;4985311;28;20379;-76
2022/01/14 12:40:06;;;;;;;10.80;7.95;;;;;;;3.11;89.77;95334.44;4974290;28;20040;-75
2022/01/14 12:42:32;;;;;;;14.52;8.35;;;;;;;3.17;90.00;95339.09;4972543;28;20475;-76
2022/01/14 12:44:59;;;;;;;10.60;8.20;;;;;;;3.21;91.19;95332.81;4952724;28;20046;-76
2022/01/14 12:47:32;;;;;;;11.80;7.45;;;;;;;3.13;90.69;95324.91;4990077;28;20030;-75
2022/01/14 12:50:04;;;;;;;10.02;7.50;;;;;;;3.27;91.36;95324.69;4971961;28;20630;-76
2022/01/14 12:52:38;;;;;;;9.88;7.80;;;;;;;3.32;90.74;95325.13;4983623;28;20033;-75
2022/01/14 12:55:05;;;;;;;9.05;7.18;;;;;;;3.37;90.94;95314.53;4980060;28;20026;-75
2022/01/14 12:57:30;;;;;;;10.80;7.32;;;;;;;3.26;91.05;95317.91;4988632;28;20042;-75
2022/01/14 12:59:56;;;;;;;9.32;7.05;;;;;;;3.23;90.96;95314.78;4978586;28;20025;-75
2022/01/14 13:02:24;;;;;;;8.65;7.20;;;;;;;3.25;91.40;95321.41;4969019;28;20030;-74
2022/01/14 13:05:03;;;;;;;8.57;6.93;;;;;;;3.29;91.00;95314.31;4985317;28;20092;-74
2022/01/14 13:07:30;;;;;;;8.82;6.57;;;;;;;3.33;91.15;95310.59;4972676;28;20069;-75
2022/01/14 13:09:55;;;;;;;13.48;6.28;;;;;;;3.38;91.30;95311.03;4959625;28;20046;-75
2022/01/14 13:12:25;;;;;;;7.22;5.97;;;;;;;3.25;90.80;95302.66;4979407;28;20058;-76
2022/01/14 13:15:00;;;;;;;6.72;5.85;;;;;;;3.19;91.43;95303.97;5001916;28;20098;-75
2022/01/14 13:17:28;;;;;;;7.18;5.57;;;;;;;3.24;91.95;95298.50;5003066;28;20108;-75
2022/01/14 13:20:04;;;;;;;8.48;5.93;;;;;;;3.38;91.47;95296.50;4984987;28;20026;-75
2022/01/14 13:22:31;;;;;;;7.45;5.97;;;;;;;3.37;91.97;95292.28;4989384;28;20038;-74
2022/01/14 13:25:11;;;;;;;8.13;6.35;;;;;;;3.35;92.80;95294.19;4971830;28;20038;-75
2022/01/14 13:27:40;;;;;;;7.35;6.07;;;;;;;3.39;93.15;95287.91;4985141;28;20037;-75
2022/01/14 13:30:14;;;;;;;7.03;6.05;;;;;;;3.47;92.20;95287.28;4988252;28;20562;-75
2022/01/14 13:32:40;;;;;;;8.98;5.53;;;;;;;3.40;91.63;95288.72;4990891;28;20018;-75
2022/01/14 13:35:23;;;;;;;7.53;5.85;;;;;;;3.43;92.56;95280.78;4983712;28;20037;-74
2022/01/14 13:37:54;;;;;;;8.82;5.65;;;;;;;3.38;92.91;95275.19;4987634;28;20042;-74
2022/01/14 13:40:25;;;;;;;6.40;5.65;;;;;;;3.49;92.79;95281.13;4990827;28;20117;-75
2022/01/14 13:43:08;;;;;;;9.02;5.53;;;;;;;3.49;92.81;95281.13;4978915;28;20038;-74
2022/01/14 13:45:36;;;;;;;8.02;6.55;;;;;;;3.42;93.14;95268.91;4986702;28;20077;-75
2022/01/14 13:48:10;;;;;;;5.68;4.93;;;;;;;3.50;92.31;95267.38;4985268;28;20030;-74
2022/01/14 13:50:46;;;;;;;5.32;4.75;;;;;;;3.53;93.13;95258.66;4988761;28;20168;-75
2022/01/14 13:53:14;;;;;;;9.32;4.88;;;;;;;3.54;93.08;95252.59;4972423;28;20085;-75
2022/01/14 13:55:40;;;;;;;5.03;4.53;;;;;;;3.51;92.77;95245.16;4985345;28;20026;-75
2022/01/14 13:58:13;;;;;;;6.68;5.18;;;;;;;3.36;93.98;95251.50;4988346;28;20045;-75
2022/01/14 14:00:40;;;;;;;5.53;4.93;;;;;;;3.41;94.39;95249.38;4987369;28;20454;-75
2022/01/14 14:03:19;;;;;;;7.32;5.05;;;;;;;3.37;93.69;95230.88;4982965;28;20559;-75
2022/01/14 14:05:50;;;;;;;4.88;4.38;;;;;;;3.41;93.75;95237.38;5004639;28;20030;-77
2022/01/14 14:16:32;;;;;;;6.13;4.72;;;;;;;3.30;94.44;95219.53;5001480;28;20125;-76
2022/01/14 14:18:58;;;;;;;7.03;4.13;;;;;;;3.18;95.40;95223.81;5000140;28;20030;-75
2022/01/14 14:21:24;;;;;;;5.15;4.20;;;;;;;3.17;95.02;95223.97;4987488;28;20106;-75
2022/01/14 14:23:57;;;;;;;5.88;3.83;;;;;;;3.05;95.43;95222.38;4987152;28;20031;-75
2022/01/14 14:26:29;;;;;;;6.43;4.07;;;;;;;3.06;95.48;95224.78;4999522;28;20061;-75
2022/01/14 14:28:55;;;;;;;5.38;3.85;;;;;;;2.96;96.06;95221.31;4984789;28;20035;-75
2022/01/14 14:31:29;;;;;;;7.78;4.13;;;;;;;2.94;96.77;95219.81;4969439;28;20042;-75
2022/01/14 14:33:54;;;;;;;4.90;4.35;;;;;;;2.99;96.60;95230.47;4987858;28;20053;-75
2022/01/14 14:36:22;;;;;;;4.90;4.20;;;;;;;2.87;97.31;95223.75;4971195;28;20034;-76
2022/01/14 14:38:48;;;;;;;5.38;4.22;;;;;;;2.78;98.14;95229.56;4983188;28;20801;-75
2022/01/14 14:41:13;;;;;;;8.63;4.80;;;;;;;2.82;98.58;95225.88;4987877;28;20022;-76
2022/01/14 14:43:39;;;;;;;5.18;4.30;;;;;;;2.79;98.42;95221.81;5002894;28;20037;-75
2022/01/14 14:46:04;;;;;;;9.70;4.82;;;;;;;2.71;99.35;95210.50;4999084;28;20479;-76
2022/01/14 14:48:30;;;;;;;5.60;4.30;;;;;;;2.75;99.46;95220.41;5002186;28;20037;-76
2022/01/14 14:50:56;;;;;;;5.95;4.10;;;;;;;2.66;99.78;95210.88;4987738;28;20054;-76
2022/01/14 14:53:21;;;;;;;6.32;5.00;;;;;;;2.55;100.00;95210.88;5000446;28;20069;-75
2022/01/14 14:55:47;;;;;;;4.90;4.40;;;;;;;2.55;100.00;95208.31;5002914;28;20476;-75
2022/01/14 14:58:12;;;;;;;6.65;4.95;;;;;;;2.53;100.00;95218.66;4989704;28;20558;-76
2022/01/14 15:00:38;;;;;;;5.95;4.55;;;;;;;2.41;100.00;95221.34;4998011;28;20439;-75
2022/01/14 15:03:06;;;;;;;4.95;3.95;;;;;;;2.32;100.00;95215.16;4987919;28;20093;-75
2022/01/14 15:05:32;;;;;;;6.55;4.30;;;;;;;2.29;100.00;95212.00;4993310;28;20030;-75
2022/01/14 15:07:57;;;;;;;5.90;3.95;;;;;;;2.36;100.00;95225.97;4994604;28;20062;-75
2022/01/14 15:10:24;;;;;;;4.07;3.67;;;;;;;2.34;100.00;95220.16;4986951;28;20033;-75
2022/01/14 15:12:50;;;;;;;6.90;4.47;;;;;;;2.15;100.00;95213.06;4987208;28;20112;-75
2022/01/14 15:15:32;;;;;;;6.05;4.30;;;;;;;2.18;100.00;95224.78;4998982;28;20038;-75
2022/01/14 15:20:33;;;;;;;5.28;4.72;;;;;;;2.25;100.00;95221.63;5002814;28;20037;-75
2022/01/14 15:22:58;;;;;;;7.07;4.63;;;;;;;2.04;100.00;95213.84;4981766;28;20085;-78
2022/01/14 15:25:24;;;;;;;6.38;4.45;;;;;;;2.09;100.00;95208.38;4986887;28;20039;-76
2022/01/14 15:27:50;;;;;;;6.28;4.45;;;;;;;2.05;100.00;95212.91;4998192;28;20483;-76
2022/01/14 15:30:16;;;;;;;6.47;5.07;;;;;;;2.04;100.00;95211.28;5004089;28;20023;-76
2022/01/14 15:32:42;;;;;;;8.93;4.47;;;;;;;2.01;100.00;95219.16;4987466;28;20484;-76
2022/01/14 15:35:08;;;;;;;5.35;4.75;;;;;;;1.99;100.00;95218.44;4987186;28;20079;-76
2022/01/14 15:37:34;;;;;;;6.55;5.00;;;;;;;2.03;100.00;95209.66;4989546;28;20023;-74
2022/01/14 15:40:04;;;;;;;9.40;5.97;;;;;;;1.99;100.00;95207.44;4982237;28;20052;-76
2022/01/14 15:42:30;;;;;;;6.32;5.28;;;;;;;2.05;100.00;95210.38;4980531;28;20030;-76
2022/01/14 15:44:56;;;;;;;5.40;4.70;;;;;;;2.15;100.00;95210.50;4983237;28;20036;-77
2022/01/14 15:47:22;;;;;;;7.43;4.75;;;;;;;2.17;100.00;95212.94;4991179;28;20446;-76
2022/01/14 15:49:47;;;;;;;6.95;5.00;;;;;;;2.17;100.00;95202.72;5007806;28;20033;-76
2022/01/14 15:52:13;;;;;;;6.65;4.85;;;;;;;2.26;100.00;95197.72;4987005;28;20078;-76
2022/01/14 15:54:38;;;;;;;5.90;4.50;;;;;;;2.07;100.00;95198.28;5003633;28;20038;-76
2022/01/14 15:57:04;;;;;;;6.97;4.75;;;;;;;2.15;100.00;95200.28;4980375;28;20411;-77
2022/01/14 15:59:30;;;;;;;6.28;4.78;;;;;;;2.15;100.00;95196.91;5002345;28;20027;-76
2022/01/14 16:01:55;;;;;;;8.20;4.50;;;;;;;2.09;100.00;95198.16;4969199;28;20026;-76
2022/01/14 16:04:20;;;;;;;5.75;5.10;;;;;;;2.14;100.00;95193.53;4966106;28;20053;-76
2022/01/14 16:06:46;;;;;;;14.35;11.48;;;;;;;2.11;100.00;95191.22;5002575;28;20034;-76
2022/01/14 16:09:11;;;;;;;7.22;5.82;;;;;;;2.21;100.00;95193.91;4969405;28;20022;-76
2022/01/14 16:11:37;;;;;;;7.05;5.95;;;;;;;2.17;100.00;95189.94;4976535;28;20058;-77
2022/01/14 16:14:21;;;;;;;13.27;6.03;;;;;;;2.24;100.00;95191.94;5001773;28;20033;-77
2022/01/14 16:16:46;;;;;;;7.57;5.82;;;;;;;2.21;100.00;95178.56;4985767;28;20037;-77
2022/01/14 16:19:11;;;;;;;5.07;4.57;;;;;;;2.25;100.00;95188.44;4980215;28;20821;-77
2022/01/14 16:21:37;;;;;;;6.47;4.95;;;;;;;2.20;100.00;95195.63;5001835;28;20030;-78
2022/01/14 16:24:03;;;;;;;4.97;4.47;;;;;;;2.20;100.00;95202.47;4985900;28;20125;-76
2022/01/14 16:26:29;;;;;;;7.20;5.00;;;;;;;2.11;100.00;95201.44;4996589;28;20050;-77
2022/01/14 16:28:54;;;;;;;8.60;5.53;;;;;;;2.04;100.00;95197.69;4985833;28;20041;-77
2022/01/14 16:31:19;;;;;;;7.55;4.70;;;;;;;2.22;100.00;95203.97;5001033;28;20038;-77
2022/01/14 16:33:45;;;;;;;6.28;4.95;;;;;;;2.10;100.00;95192.13;4982825;28;20484;-77
2022/01/14 16:36:10;;;;;;;7.03;5.32;;;;;;;2.09;100.00;95205.81;4998926;28;20133;-77
2022/01/14 16:38:36;;;;;;;6.80;5.40;;;;;;;2.07;100.00;95205.94;5022612;28;20072;-79
2022/01/14 16:41:01;;;;;;;7.32;5.05;;;;;;;2.34;100.00;95200.53;5001972;28;20052;-79
2022/01/14 16:43:33;;;;;;;7.00;5.63;;;;;;;2.31;100.00;95199.94;4985908;28;20121;-78
2022/01/14 16:46:00;;;;;;;6.95;6.05;;;;;;;2.31;100.00;95198.19;4986241;28;20127;-78
2022/01/14 16:48:25;;;;;;;7.45;5.32;;;;;;;2.11;100.00;95196.31;4981456;28;20100;-79
2022/01/14 16:50:52;;;;;;;8.00;5.60;;;;;;;2.30;100.00;95211.09;5003314;28;20487;-78
2022/01/14 16:53:18;;;;;;;7.20;6.10;;;;;;;2.21;100.00;95201.56;5002646;28;20027;-78